Time;durP1;ratioP1;P1;durP2;ratioP2;P2;SDS_P1;SDS_P2;PMS_P1;PMS_P2;Temp;Humidity;BMP_temperature;BMP_pressure;BME280_temperature;BME280_humidity;BME280_pressure;Samples;Min_cycle;Max_cycle;Signal;HPM_P1;HPM_P2
2021/09/09 00:02:09;;;;;;;21.07;15.38;;;;;;;14.58;63.10;101352.63;1771851;78;21041;-63
2021/09/09 00:04:38;;;;;;;20.32;15.03;;;;;;;14.59;63.10;101347.70;1770608;78;21083;-64
2021/09/09 00:07:07;;;;;;;29.45;16.93;;;;;;;14.57;63.07;101345.64;1772454;78;21018;-62
2021/09/09 00:09:33;;;;;;;26.15;16.35;;;;;;;14.56;63.10;101348.78;1773515;78;21046;-62
2021/09/09 00:12:03;;;;;;;20.02;14.40;;;;;;;14.52;63.14;101346.50;1772756;78;21181;-62
2021/09/09 00:14:32;;;;;;;19.90;13.50;;;;;;;14.50;63.14;101341.32;1771684;78;21113;-63
2021/09/09 00:17:00;;;;;;;21.77;13.85;;;;;;;14.45;63.14;101347.47;1775229;79;21117;-63
2021/09/09 00:19:26;;;;;;;21.15;14.43;;;;;;;14.41;63.33;101348.70;1771426;78;21574;-62
2021/09/09 00:21:53;;;;;;;24.57;14.20;;;;;;;14.35;63.50;101343.89;1774433;78;21030;-62
2021/09/09 00:24:23;;;;;;;20.40;13.40;;;;;;;14.26;63.74;101344.99;1768479;78;21128;-62
2021/09/09 00:26:51;;;;;;;19.90;13.18;;;;;;;14.25;64.01;101343.78;1748106;80;21054;-62
2021/09/09 00:29:19;;;;;;;18.05;14.38;;;;;;;14.30;64.14;101347.73;1771812;78;21065;-63
2021/09/09 00:31:47;;;;;;;20.52;14.40;;;;;;;14.36;64.44;101349.56;1774591;78;21073;-63
2021/09/09 00:34:15;;;;;;;23.70;14.58;;;;;;;14.41;64.79;101346.05;1776335;78;21078;-63
2021/09/09 00:36:43;;;;;;;22.45;15.28;;;;;;;14.42;64.89;101345.07;1774729;78;21211;-62
2021/09/09 00:39:10;;;;;;;24.70;16.40;;;;;;;14.45;64.93;101350.12;1745202;78;21116;-62
2021/09/09 00:41:37;;;;;;;26.60;15.90;;;;;;;14.47;65.02;101347.72;1770496;78;21050;-62
2021/09/09 00:44:03;;;;;;;24.57;15.45;;;;;;;14.46;65.10;101346.52;1750273;80;21056;-63
2021/09/09 00:46:33;;;;;;;26.70;16.00;;;;;;;14.46;64.87;101346.03;1776263;78;20989;-62
2021/09/09 00:49:00;;;;;;;22.15;13.75;;;;;;;14.44;64.64;101349.75;1768170;78;21114;-62
2021/09/09 00:51:26;;;;;;;24.63;13.90;;;;;;;14.39;64.51;101346.64;1746868;78;21683;-63
2021/09/09 00:53:54;;;;;;;20.30;14.40;;;;;;;14.36;64.34;101352.20;1784706;78;21058;-62
2021/09/09 00:56:20;;;;;;;21.05;13.25;;;;;;;14.38;64.26;101349.78;1780261;79;21018;-63
2021/09/09 00:58:48;;;;;;;22.37;14.58;;;;;;;14.44;64.33;101352.41;1780239;78;21085;-62
2021/09/09 01:01:16;;;;;;;22.45;15.35;;;;;;;14.46;64.30;101356.63;1784999;78;21141;-62
2021/09/09 01:03:43;;;;;;;21.90;14.95;;;;;;;14.41;64.29;101354.83;1779126;78;21116;-63
2021/09/09 01:06:09;;;;;;;22.45;15.45;;;;;;;14.37;64.36;101355.20;1756810;79;21026;-63
2021/09/09 01:08:36;;;;;;;23.10;13.93;;;;;;;14.31;64.54;101354.72;1784328;78;21007;-63
2021/09/09 01:11:05;;;;;;;22.17;14.45;;;;;;;14.27;64.63;101353.30;1780018;78;21560;-64
2021/09/09 01:13:32;;;;;;;16.73;12.20;;;;;;;14.25;64.58;101350.41;1782124;78;21168;-63
2021/09/09 01:15:59;;;;;;;19.95;14.35;;;;;;;14.22;64.52;101347.54;1780470;78;21073;-63
2021/09/09 01:18:26;;;;;;;18.67;13.98;;;;;;;14.16;64.49;101345.37;1781739;78;21062;-63
2021/09/09 01:20:53;;;;;;;20.08;13.35;;;;;;;14.09;64.52;101347.66;1784745;78;21573;-63
2021/09/09 01:23:19;;;;;;;18.55;12.30;;;;;;;14.11;64.61;101354.16;1783842;78;21144;-63
2021/09/09 01:25:46;;;;;;;18.30;10.98;;;;;;;14.15;64.66;101347.65;1783358;78;21831;-63
2021/09/09 01:28:13;;;;;;;21.70;12.75;;;;;;;14.17;64.63;101351.04;1786368;78;21097;-63
2021/09/09 01:30:39;;;;;;;17.10;12.13;;;;;;;14.15;64.78;101350.30;1787086;78;21038;-63
2021/09/09 01:33:06;;;;;;;18.67;13.60;;;;;;;14.09;64.92;101348.16;1753493;79;21086;-63
2021/09/09 01:35:33;;;;;;;20.17;13.30;;;;;;;14.06;64.95;101344.42;1754472;79;21092;-63
2021/09/09 01:37:59;;;;;;;24.15;13.18;;;;;;;14.03;65.03;101349.95;1785061;78;21112;-63
2021/09/09 01:40:30;;;;;;;20.82;13.58;;;;;;;14.01;65.27;101353.21;1783849;78;21414;-64
2021/09/09 01:42:58;;;;;;;19.80;14.43;;;;;;;13.96;65.28;101351.41;1781492;78;21004;-63
2021/09/09 01:45:25;;;;;;;19.98;14.38;;;;;;;13.90;65.35;101346.10;1761124;78;21100;-62
2021/09/09 01:47:51;;;;;;;19.15;13.38;;;;;;;13.90;65.43;101342.14;1784484;78;21557;-62
2021/09/09 01:50:17;;;;;;;18.48;11.95;;;;;;;13.94;65.50;101347.56;1781263;78;21096;-62
2021/09/09 01:52:44;;;;;;;18.98;13.98;;;;;;;13.97;65.50;101346.46;1757321;79;21549;-63
2021/09/09 01:55:11;;;;;;;22.45;14.53;;;;;;;13.94;65.58;101344.42;1775530;79;21018;-63
2021/09/09 01:57:37;;;;;;;20.68;14.38;;;;;;;13.92;65.75;101345.03;1769443;79;21041;-63
2021/09/09 02:00:06;;;;;;;19.37;14.93;;;;;;;13.92;65.70;101341.56;1741221;80;21012;-63
2021/09/09 02:02:35;;;;;;;23.10;17.35;;;;;;;13.90;65.66;101345.64;1765380;79;21768;-63
2021/09/09 02:05:03;;;;;;;28.47;21.35;;;;;;;13.87;65.73;101348.53;1761380;79;21132;-63
2021/09/09 02:07:31;;;;;;;38.35;27.15;;;;;;;13.83;65.74;101343.10;1758940;79;20974;-62
2021/09/09 02:09:59;;;;;;;41.98;30.32;;;;;;;13.79;65.68;101344.31;1765303;79;21035;-62
2021/09/09 02:12:28;;;;;;;48.40;34.27;;;;;;;13.80;65.64;101348.66;1764733;79;21519;-62
2021/09/09 02:14:56;;;;;;;43.63;31.65;;;;;;;13.85;65.30;101344.30;1762790;79;21138;-62
2021/09/09 02:17:22;;;;;;;36.73;26.25;;;;;;;13.86;65.16;101344.67;1765740;79;21045;-63
2021/09/09 02:19:49;;;;;;;36.30;27.10;;;;;;;13.85;65.32;101341.66;1760947;79;21009;-63
2021/09/09 02:22:15;;;;;;;42.40;30.52;;;;;;;13.82;65.49;101336.14;1765754;79;21052;-63
2021/09/09 02:24:45;;;;;;;35.65;28.02;;;;;;;13.80;65.43;101334.56;1758472;79;21092;-63
2021/09/09 02:27:17;;;;;;;37.63;27.87;;;;;;;13.78;65.42;101337.33;1737777;80;21195;-63
2021/09/09 02:29:44;;;;;;;37.63;28.25;;;;;;;13.76;65.42;101333.97;1767532;79;21506;-64
2021/09/09 02:32:11;;;;;;;33.95;25.08;;;;;;;13.75;65.35;101332.27;1735677;79;21109;-63
2021/09/09 02:34:38;;;;;;;34.88;24.35;;;;;;;13.70;65.23;101335.77;1765980;79;21092;-62
2021/09/09 02:37:05;;;;;;;31.05;20.57;;;;;;;13.64;65.36;101329.66;1762829;79;21061;-63
2021/09/09 02:39:31;;;;;;;30.45;19.32;;;;;;;13.66;65.33;101330.36;1760293;79;21574;-63
2021/09/09 02:41:58;;;;;;;27.30;18.57;;;;;;;13.70;65.13;101334.44;1760370;79;21082;-62
2021/09/09 02:44:25;;;;;;;25.15;17.70;;;;;;;13.72;65.06;101332.05;1761706;79;21157;-62
2021/09/09 02:46:52;;;;;;;25.50;17.35;;;;;;;13.73;65.00;101335.53;1735243;79;21141;-62
2021/09/09 02:49:19;;;;;;;26.37;18.65;;;;;;;13.69;64.96;101332.28;1763588;79;21061;-63
2021/09/09 02:51:47;;;;;;;23.05;17.25;;;;;;;13.67;65.02;101343.47;1759625;79;21133;-63
2021/09/09 02:54:15;;;;;;;22.22;17.45;;;;;;;13.62;65.05;101336.87;1734990;79;21096;-63
2021/09/09 02:56:42;;;;;;;23.75;16.67;;;;;;;13.55;64.98;101333.37;1770371;79;21449;-62
2021/09/09 02:59:09;;;;;;;24.05;16.23;;;;;;;13.49;65.14;101339.61;1762075;79;21116;-63
2021/09/09 03:01:35;;;;;;;23.95;16.20;;;;;;;13.45;65.23;101339.01;1726466;79;21531;-63
2021/09/09 03:04:01;;;;;;;22.85;15.32;;;;;;;13.39;65.40;101335.50;1760653;79;21092;-61
2021/09/09 03:06:28;;;;;;;23.52;14.68;;;;;;;13.39;65.31;101338.15;1736429;81;21029;-61
2021/09/09 03:08:55;;;;;;;21.77;14.40;;;;;;;13.44;65.21;101337.31;1732918;79;21109;-60
2021/09/09 03:11:21;;;;;;;24.00;15.48;;;;;;;13.47;65.26;101337.08;1757463;79;21064;-56
2021/09/09 03:13:49;;;;;;;22.40;15.25;;;;;;;13.50;65.13;101330.70;1758597;79;21061;-60
2021/09/09 03:16:16;;;;;;;20.80;14.87;;;;;;;13.49;65.01;101341.77;1754356;79;23156;-61
2021/09/09 03:18:45;;;;;;;22.93;14.68;;;;;;;13.47;64.99;101337.58;1757545;79;21077;-62
2021/09/09 03:21:12;;;;;;;21.42;15.45;;;;;;;13.44;65.11;101336.48;1756404;79;21217;-61
2021/09/09 03:23:39;;;;;;;23.57;15.70;;;;;;;13.41;65.15;101338.03;1752655;79;21108;-60
2021/09/09 03:26:08;;;;;;;22.87;14.90;;;;;;;13.37;65.22;101333.47;1752569;79;21095;-60
2021/09/09 03:28:35;;;;;;;25.12;16.57;;;;;;;13.35;65.17;101339.36;1758837;79;21086;-60
2021/09/09 03:31:02;;;;;;;22.37;15.23;;;;;;;13.31;65.33;101341.82;1749523;79;21040;-60
2021/09/09 03:33:29;;;;;;;20.95;14.28;;;;;;;13.29;65.43;101338.46;1757503;79;21665;-62
2021/09/09 03:35:56;;;;;;;19.70;13.85;;;;;;;13.34;65.31;101343.78;1751937;79;21115;-62
2021/09/09 03:38:22;;;;;;;20.17;14.58;;;;;;;13.37;65.29;101348.00;1748553;79;21123;-62
2021/09/09 03:40:49;;;;;;;21.52;14.95;;;;;;;13.37;65.31;101343.55;1756543;79;22212;-63
2021/09/09 03:43:15;;;;;;;21.48;14.80;;;;;;;13.33;65.44;101349.18;1750098;79;21528;-61
2021/09/09 03:45:43;;;;;;;21.25;15.00;;;;;;;13.31;65.51;101351.08;1754211;79;20990;-61
2021/09/09 03:48:10;;;;;;;22.73;15.70;;;;;;;13.28;65.60;101353.48;1756935;79;21100;-61
2021/09/09 03:50:37;;;;;;;24.70;14.63;;;;;;;13.26;65.67;101359.34;1750177;79;21155;-62
2021/09/09 03:53:05;;;;;;;19.98;14.50;;;;;;;13.22;65.80;101361.04;1764314;79;21519;-62
2021/09/09 03:55:31;;;;;;;22.35;15.43;;;;;;;13.20;65.75;101358.51;1775131;78;21062;-62
2021/09/09 03:57:58;;;;;;;20.97;14.63;;;;;;;13.24;65.66;101364.41;1775868;78;21093;-61
2021/09/09 04:00:24;;;;;;;17.62;13.80;;;;;;;13.31;65.38;101365.13;1777817;78;21752;-61
2021/09/09 04:02:52;;;;;;;18.32;12.50;;;;;;;13.38;65.33;101365.53;1780898;78;21097;-61
2021/09/09 04:05:19;;;;;;;19.48;13.13;;;;;;;13.44;65.42;101365.56;1750541;79;22382;-63
2021/09/09 04:07:47;;;;;;;25.90;15.00;;;;;;;13.45;65.57;101364.58;1776591;78;21437;-62
2021/09/09 04:10:14;;;;;;;21.23;15.55;;;;;;;13.47;65.44;101363.52;1772514;78;21383;-62
2021/09/09 04:12:41;;;;;;;25.30;18.00;;;;;;;13.50;65.45;101365.07;1753161;79;21603;-62
2021/09/09 04:15:11;;;;;;;23.40;16.35;;;;;;;13.50;65.45;101366.39;1777374;78;22251;-62
2021/09/09 04:17:37;;;;;;;22.25;15.80;;;;;;;13.48;65.57;101365.22;1777683;78;21169;-62
2021/09/09 04:20:05;;;;;;;20.60;14.83;;;;;;;13.50;65.71;101364.61;1783425;79;21085;-61
2021/09/09 04:22:32;;;;;;;23.67;14.07;;;;;;;13.55;65.84;101361.13;1751686;79;21160;-62
2021/09/09 04:24:58;;;;;;;23.45;13.30;;;;;;;13.65;65.84;101357.30;1783406;78;21085;-62
2021/09/09 04:27:25;;;;;;;22.50;15.13;;;;;;;13.72;65.77;101351.89;1779143;79;21341;-61
2021/09/09 04:29:52;;;;;;;20.23;13.75;;;;;;;13.79;65.87;101356.71;1755196;79;21185;-62
2021/09/09 04:32:19;;;;;;;21.95;14.83;;;;;;;13.83;65.87;101355.00;1780032;78;21028;-62
2021/09/09 04:34:46;;;;;;;22.27;15.23;;;;;;;13.88;65.77;101355.48;1782715;79;22203;-61
2021/09/09 04:37:12;;;;;;;21.25;15.25;;;;;;;13.89;65.66;101361.14;1772787;79;21142;-69
2021/09/09 04:39:39;;;;;;;21.17;16.27;;;;;;;13.87;65.65;101352.95;1778705;78;21501;-62
2021/09/09 04:42:06;;;;;;;22.50;15.32;;;;;;;13.86;65.77;101354.77;1783017;78;21088;-57
2021/09/09 04:44:34;;;;;;;26.33;15.78;;;;;;;13.88;65.84;101352.84;1774673;78;21040;-56
2021/09/09 04:47:00;;;;;;;25.02;15.08;;;;;;;13.96;65.88;101355.38;1776712;79;21048;-56
2021/09/09 04:49:26;;;;;;;21.82;14.98;;;;;;;14.07;65.70;101358.00;1802124;77;21474;-57
2021/09/09 04:51:53;;;;;;;27.25;17.32;;;;;;;14.17;65.44;101353.69;1774401;78;21133;-57
2021/09/09 04:54:19;;;;;;;25.02;15.88;;;;;;;14.25;65.30;101355.20;1793857;77;21442;-57
2021/09/09 04:56:47;;;;;;;22.22;16.32;;;;;;;14.35;65.44;101351.34;1784943;78;21403;-56
2021/09/09 04:59:16;;;;;;;22.25;15.20;;;;;;;14.44;65.51;101353.27;1781491;78;21078;-56
2021/09/09 05:01:43;;;;;;;21.00;16.07;;;;;;;14.54;65.40;101344.09;1788804;78;21136;-57
2021/09/09 05:04:10;;;;;;;26.95;15.83;;;;;;;14.62;65.07;101350.10;1780919;78;22543;-57
2021/09/09 05:06:36;;;;;;;23.87;16.37;;;;;;;14.67;64.98;101351.40;1779153;78;21126;-57
2021/09/09 05:09:04;;;;;;;26.73;15.88;;;;;;;14.73;64.90;101346.59;1790956;78;21081;-57
2021/09/09 05:11:32;;;;;;;22.50;16.15;;;;;;;14.82;64.71;101351.11;1775925;78;21062;-57
2021/09/09 05:13:58;;;;;;;22.70;14.78;;;;;;;14.96;64.49;101347.31;1766256;78;21560;-59
2021/09/09 05:16:25;;;;;;;23.77;16.40;;;;;;;15.07;64.21;101345.94;1755416;80;21105;-59
2021/09/09 05:18:51;;;;;;;24.60;15.43;;;;;;;15.18;63.97;101347.67;1782999;78;21101;-57
2021/09/09 05:21:19;;;;;;;26.77;16.17;;;;;;;15.26;63.74;101347.88;1767371;78;21123;-57
2021/09/09 05:23:46;;;;;;;30.75;17.20;;;;;;;15.33;63.49;101349.05;1785602;78;21038;-57
2021/09/09 05:26:12;;;;;;;26.23;15.88;;;;;;;15.39;63.04;101344.53;1766202;80;21030;-55
2021/09/09 05:28:38;;;;;;;22.93;15.68;;;;;;;15.41;62.72;101350.55;1767486;79;21062;-55
2021/09/09 05:31:05;;;;;;;21.02;16.15;;;;;;;15.45;62.84;101337.02;1770570;80;21529;-55
2021/09/09 05:33:31;;;;;;;22.45;15.63;;;;;;;15.49;62.70;101337.13;1786253;78;21145;-56
2021/09/09 05:35:58;;;;;;;22.77;15.23;;;;;;;15.53;62.88;101337.21;1783754;78;21627;-56
2021/09/09 05:38:24;;;;;;;23.55;15.90;;;;;;;15.60;63.01;101336.56;1783834;78;21077;-56
2021/09/09 05:40:51;;;;;;;24.82;15.20;;;;;;;15.73;62.86;101336.32;1783126;78;21357;-55
2021/09/09 05:43:17;;;;;;;21.93;14.73;;;;;;;15.87;62.84;101338.30;1784383;78;21062;-56
2021/09/09 05:45:44;;;;;;;21.02;14.47;;;;;;;15.96;62.64;101335.68;1782252;79;21093;-55
2021/09/09 05:48:11;;;;;;;24.60;14.70;;;;;;;16.02;62.36;101337.44;1789163;78;20991;-57
2021/09/09 05:50:38;;;;;;;22.32;14.43;;;;;;;16.08;62.13;101334.25;1782381;78;21058;-56
2021/09/09 05:53:04;;;;;;;20.25;14.73;;;;;;;16.15;62.10;101331.40;1779005;78;21007;-56
2021/09/09 05:55:31;;;;;;;17.45;14.05;;;;;;;16.25;61.99;101334.08;1770782;78;21139;-55
2021/09/09 05:57:57;;;;;;;23.40;13.65;;;;;;;16.32;61.32;101333.88;1777303;79;21113;-55
2021/09/09 06:00:24;;;;;;;18.50;13.20;;;;;;;16.37;60.79;101328.99;1777960;80;21058;-54
2021/09/09 06:02:52;;;;;;;18.48;12.80;;;;;;;16.41;60.53;101326.43;1775234;78;21087;-55
2021/09/09 06:05:19;;;;;;;18.42;12.28;;;;;;;16.46;60.36;101326.85;1776657;79;21534;-62
2021/09/09 06:07:45;;;;;;;17.12;12.00;;;;;;;16.52;60.29;101323.66;1773263;80;21108;-61
2021/09/09 06:10:12;;;;;;;15.90;11.18;;;;;;;16.62;60.15;101328.12;1752541;79;20966;-62
2021/09/09 06:12:38;;;;;;;21.12;12.63;;;;;;;16.79;59.97;101331.89;1754298;79;21070;-55
2021/09/09 06:15:07;;;;;;;19.65;13.60;;;;;;;16.92;59.42;101318.36;1754372;80;21089;-55
2021/09/09 06:17:33;;;;;;;22.13;13.25;;;;;;;17.05;58.90;101325.55;1769700;80;21104;-55
2021/09/09 06:20:03;;;;;;;20.12;12.00;;;;;;;17.12;58.83;101329.31;1768657;79;21078;-56
2021/09/09 06:22:30;;;;;;;20.30;11.60;;;;;;;17.20;58.59;101333.93;1775675;79;21132;-56
2021/09/09 06:24:57;;;;;;;16.52;10.70;;;;;;;17.26;58.56;101324.03;1774224;79;21553;-56
2021/09/09 06:27:23;;;;;;;18.25;12.05;;;;;;;17.32;58.38;101323.46;1770304;78;21129;-55
2021/09/09 06:29:50;;;;;;;16.95;11.57;;;;;;;17.40;58.29;101326.71;1772324;79;21538;-57
2021/09/09 06:32:16;;;;;;;16.73;11.20;;;;;;;17.48;58.08;101319.35;1751991;78;21149;-56
2021/09/09 06:34:43;;;;;;;21.42;10.75;;;;;;;17.54;58.10;101318.28;1785746;78;21022;-56
2021/09/09 06:37:09;;;;;;;16.65;11.28;;;;;;;17.61;57.97;101322.02;1786155;78;21054;-56
2021/09/09 06:39:35;;;;;;;17.90;10.65;;;;;;;17.71;58.03;101325.16;1757109;79;21671;-56
2021/09/09 06:42:03;;;;;;;17.62;11.50;;;;;;;17.79;57.81;101326.09;1766682;79;21093;-54
2021/09/09 06:44:29;;;;;;;18.98;10.32;;;;;;;17.86;57.52;101326.34;1777427;78;21356;-56
2021/09/09 06:46:56;;;;;;;14.68;10.32;;;;;;;17.94;56.93;101331.80;1772539;78;21050;-56
2021/09/09 06:50:50;;;;;;;15.90;9.98;;;;;;;18.12;57.16;101329.19;1793082;78;22709;-71
2021/09/09 06:53:16;;;;;;;16.97;10.00;;;;;;;18.22;56.93;101326.45;1774303;79;21639;-72
2021/09/09 06:55:44;;;;;;;17.85;10.65;;;;;;;18.40;56.29;101327.81;1772557;80;21026;-71
2021/09/09 06:58:11;;;;;;;17.87;11.15;;;;;;;18.55;56.19;101336.12;1769037;80;21038;-70
2021/09/09 07:00:37;;;;;;;14.60;10.20;;;;;;;18.65;55.92;101325.39;1700823;81;21029;-74
2021/09/09 07:03:03;;;;;;;14.93;9.88;;;;;;;18.75;55.91;101333.63;1687931;82;21073;-68
2021/09/09 07:05:30;;;;;;;13.38;9.88;;;;;;;18.87;55.54;101335.59;1716589;81;21493;-72
2021/09/09 07:07:57;;;;;;;18.45;10.08;;;;;;;18.99;55.41;101339.36;1714509;81;22888;-73
2021/09/09 07:10:24;;;;;;;17.82;10.18;;;;;;;19.08;55.25;101339.28;1696081;81;21064;-71
2021/09/09 07:12:53;;;;;;;15.50;10.10;;;;;;;19.17;54.83;101340.17;1697698;81;21027;-70
2021/09/09 07:15:19;;;;;;;15.68;10.03;;;;;;;19.27;54.72;101336.08;1720173;81;21548;-70
2021/09/09 07:17:47;;;;;;;14.63;9.08;;;;;;;19.37;54.63;101335.47;1691688;83;21137;-73
2021/09/09 07:20:15;;;;;;;17.07;11.08;;;;;;;19.48;53.41;101332.55;1691906;82;21163;-74
2021/09/09 07:22:42;;;;;;;13.28;9.40;;;;;;;19.58;52.99;101338.25;1688214;82;21062;-71
2021/09/09 07:25:10;;;;;;;15.35;10.93;;;;;;;19.64;52.70;101330.95;1666657;83;21102;-71
2021/09/09 07:27:37;;;;;;;14.47;10.35;;;;;;;19.73;53.02;101329.98;1663976;84;21169;-75
2021/09/09 07:30:07;;;;;;;14.10;9.35;;;;;;;19.82;52.81;101330.40;1660161;84;21481;-70
2021/09/09 07:32:35;;;;;;;14.95;10.05;;;;;;;19.91;52.24;101331.27;1694222;82;21145;-70
2021/09/09 07:35:02;;;;;;;15.15;9.58;;;;;;;19.99;52.30;101339.81;1692031;83;21693;-70
2021/09/09 07:37:28;;;;;;;12.75;8.35;;;;;;;20.08;52.25;101339.34;1664210;82;21600;-73
2021/09/09 07:39:55;;;;;;;11.68;9.10;;;;;;;20.18;51.72;101342.71;1693574;82;21082;-71
2021/09/09 07:42:21;;;;;;;13.88;9.23;;;;;;;20.28;51.23;101341.24;1693875;83;21062;-71
2021/09/09 07:44:49;;;;;;;15.05;9.43;;;;;;;20.35;51.67;101336.39;1691264;83;21218;-73
2021/09/09 07:47:15;;;;;;;13.80;9.58;;;;;;;20.44;51.66;101335.91;1655193;84;21591;-71
2021/09/09 07:49:42;;;;;;;14.05;10.20;;;;;;;20.51;51.41;101340.95;1676452;84;21056;-70
2021/09/09 07:52:09;;;;;;;17.30;8.60;;;;;;;20.59;51.06;101334.76;1715385;82;22048;-71
2021/09/09 07:54:35;;;;;;;17.23;9.28;;;;;;;20.69;50.48;101333.30;1732290;82;21063;-70
2021/09/09 07:57:01;;;;;;;12.43;8.73;;;;;;;20.78;50.67;101345.69;1728588;80;21108;-74
2021/09/09 07:59:28;;;;;;;16.70;9.45;;;;;;;20.85;50.59;101336.50;1729040;81;21393;-71
2021/09/09 08:01:55;;;;;;;13.80;8.10;;;;;;;20.93;49.96;101341.82;1705789;81;21072;-76
2021/09/09 08:04:24;;;;;;;10.98;7.58;;;;;;;21.00;49.92;101333.96;1730640;81;21082;-70
2021/09/09 08:06:51;;;;;;;13.90;9.28;;;;;;;21.10;49.34;101335.48;1726999;82;21087;-71
2021/09/09 08:09:18;;;;;;;16.48;8.18;;;;;;;21.21;49.41;101332.11;1723790;81;22577;-71
2021/09/09 08:11:46;;;;;;;10.80;7.33;;;;;;;21.29;49.23;101333.44;1695384;83;21051;-72
2021/09/09 08:14:13;;;;;;;9.65;6.90;;;;;;;21.39;48.07;101330.58;1725602;81;21668;-69
2021/09/09 08:16:39;;;;;;;12.10;7.92;;;;;;;21.46;48.30;101324.87;1730203;80;21059;-71
2021/09/09 08:19:07;;;;;;;11.18;7.25;;;;;;;21.55;46.88;101324.37;1733824;81;21454;-69
2021/09/09 08:21:34;;;;;;;15.63;8.45;;;;;;;21.61;47.08;101325.03;1702647;82;21102;-76
2021/09/09 08:24:00;;;;;;;11.55;6.78;;;;;;;21.68;46.57;101317.45;1728419;81;21129;-70
2021/09/09 08:26:28;;;;;;;12.07;7.85;;;;;;;21.75;46.39;101316.25;1730001;81;21082;-70
2021/09/09 08:28:54;;;;;;;11.70;7.00;;;;;;;21.83;46.14;101315.39;1732587;81;21094;-71
2021/09/09 08:31:22;;;;;;;12.43;7.33;;;;;;;21.91;46.16;101315.88;1728182;80;21047;-72
2021/09/09 08:33:49;;;;;;;20.25;8.08;;;;;;;22.01;45.38;101317.31;1737449;80;22260;-70
2021/09/09 08:36:18;;;;;;;11.22;7.03;;;;;;;22.06;44.20;101314.94;1735325;81;21175;-69
2021/09/09 08:38:44;;;;;;;11.03;7.33;;;;;;;22.13;43.53;101318.27;1731348;80;21074;-71
2021/09/09 08:41:10;;;;;;;9.93;6.78;;;;;;;22.17;43.30;101308.34;1709372;81;21530;-74
2021/09/09 08:43:37;;;;;;;10.18;6.80;;;;;;;22.23;43.33;101314.34;1726671;82;21051;-72
2021/09/09 08:46:03;;;;;;;11.57;7.62;;;;;;;22.28;43.75;101311.17;1728701;81;21210;-70
2021/09/09 08:48:30;;;;;;;14.85;6.85;;;;;;;22.38;44.04;101307.74;1723440;81;21062;-69
2021/09/09 08:50:57;;;;;;;12.45;7.00;;;;;;;22.48;44.30;101308.00;1705369;81;21652;-71
2021/09/09 08:53:23;;;;;;;13.55;6.92;;;;;;;22.56;43.95;101310.63;1732862;80;21035;-72
2021/09/09 08:55:50;;;;;;;10.15;6.85;;;;;;;22.64;43.84;101306.54;1735695;80;21077;-70
2021/09/09 08:58:21;;;;;;;11.12;7.30;;;;;;;22.74;42.97;101313.83;1736987;81;22864;-73
2021/09/09 09:01:21;;;;;;;11.28;7.20;;;;;;;22.79;42.48;101317.32;1709834;82;20912;-73
2021/09/09 09:03:46;;;;;;;;;;;;;;;22.84;42.02;101312.24;1738823;80;21584;-71
2021/09/09 09:06:27;;;;;;;11.57;6.37;;;;;;;22.90;41.45;101310.19;1740493;80;20225;-72
2021/09/09 09:08:57;;;;;;;12.10;7.10;;;;;;;22.90;40.75;101308.02;1737364;80;21059;-76
2021/09/09 09:11:34;;;;;;;11.22;6.90;;;;;;;22.92;40.93;101309.49;1737714;80;21101;-70
2021/09/09 09:14:01;;;;;;;11.75;6.83;;;;;;;22.97;41.22;101303.59;1733634;81;21091;-73
2021/09/09 09:16:29;;;;;;;10.15;7.35;;;;;;;23.05;40.38;101304.00;1738515;81;21285;-75
2021/09/09 09:18:58;;;;;;;10.35;6.40;;;;;;;23.10;40.94;101301.14;1733819;80;21123;-69
2021/09/09 09:21:26;;;;;;;11.83;7.35;;;;;;;23.15;41.07;101292.55;1733545;81;21409;-70
2021/09/09 09:23:55;;;;;;;12.47;7.72;;;;;;;23.21;40.99;101289.11;1736719;81;21133;-75
2021/09/09 09:26:21;;;;;;;11.33;6.85;;;;;;;23.28;40.98;101284.66;1735914;81;21074;-71
2021/09/09 09:28:54;;;;;;;10.38;7.25;;;;;;;23.38;41.89;101287.07;1711548;80;21314;-70
2021/09/09 09:31:24;;;;;;;10.93;6.87;;;;;;;23.47;40.80;101285.12;1736439;81;21093;-71
2021/09/09 09:33:56;;;;;;;12.68;6.90;;;;;;;23.54;41.04;101275.31;1705216;82;21418;-72
2021/09/09 09:36:31;;;;;;;10.18;7.05;;;;;;;23.60;40.57;101276.41;1737778;81;22813;-72
2021/09/09 09:39:19;;;;;;;12.10;7.40;;;;;;;23.63;40.31;101273.36;1739098;81;20957;-71
2021/09/09 09:42:03;;;;;;;13.30;7.42;;;;;;;23.72;40.45;101276.25;1710757;82;20959;-75
2021/09/09 09:44:39;;;;;;;10.95;7.25;;;;;;;23.79;40.32;101273.15;1734788;80;21120;-72
2021/09/09 09:47:20;;;;;;;10.20;6.53;;;;;;;23.85;39.32;101272.92;1735796;81;21059;-71
2021/09/09 09:49:53;;;;;;;11.60;7.85;;;;;;;23.84;40.18;101269.41;1732005;80;21952;-76
2021/09/09 09:52:23;;;;;;;11.65;7.03;;;;;;;23.84;40.26;101277.97;1720602;81;21084;-76
2021/09/09 09:54:53;;;;;;;9.53;6.65;;;;;;;23.84;39.71;101269.41;1728872;80;21686;-76
2021/09/09 09:57:21;;;;;;;10.60;7.50;;;;;;;23.85;39.20;101268.38;1733706;81;21058;-74
2021/09/09 09:59:47;;;;;;;13.32;7.53;;;;;;;23.83;39.08;101263.70;1712877;81;20916;-70
2021/09/09 10:04:46;;;;;;;10.60;6.87;;;;;;;23.90;39.31;101256.55;1791740;78;22168;-72
2021/09/09 10:07:15;;;;;;;10.00;6.95;;;;;;;23.87;39.56;101262.81;1773149;80;21272;-71
2021/09/09 10:09:41;;;;;;;22.07;8.70;;;;;;;23.89;39.10;101262.96;1759965;80;21837;-75
2021/09/09 10:12:11;;;;;;;10.30;7.37;;;;;;;23.89;39.25;101258.11;1780357;80;20978;-72
2021/09/09 10:14:49;;;;;;;13.32;7.78;;;;;;;23.89;39.15;101258.93;1764571;80;21017;-71
2021/09/09 10:17:20;;;;;;;11.20;8.00;;;;;;;23.90;38.76;101255.72;1720063;80;21053;-70
2021/09/09 10:19:49;;;;;;;11.53;7.60;;;;;;;23.86;39.41;101245.05;1748390;80;21521;-70
2021/09/09 10:22:17;;;;;;;11.12;7.92;;;;;;;23.88;39.52;101258.59;1749324;81;21217;-71
2021/09/09 10:24:46;;;;;;;10.95;7.10;;;;;;;23.89;38.75;101256.24;1725469;80;21022;-69
2021/09/09 10:27:43;;;;;;;11.10;7.33;;;;;;;23.88;38.88;101243.81;1748558;80;20998;-69
2021/09/09 10:30:16;;;;;;;9.93;7.03;;;;;;;23.88;39.45;101243.81;1750126;80;21062;-69
2021/09/09 10:32:53;;;;;;;13.18;7.10;;;;;;;23.93;39.09;101240.05;1750994;80;21081;-70
2021/09/09 10:35:27;;;;;;;10.28;7.35;;;;;;;24.01;39.27;101244.48;1753312;80;21191;-71
2021/09/09 10:37:54;;;;;;;11.10;7.92;;;;;;;24.06;38.95;101239.88;1756520;80;21125;-70
2021/09/09 10:40:33;;;;;;;13.03;8.05;;;;;;;24.07;38.35;101232.97;1751895;80;21435;-69
2021/09/09 10:43:07;;;;;;;10.30;6.83;;;;;;;24.11;38.39;101237.45;1725986;80;21067;-74
2021/09/09 10:45:39;;;;;;;13.40;7.80;;;;;;;24.14;37.94;101231.70;1744524;80;21561;-71
2021/09/09 10:48:23;;;;;;;12.88;7.00;;;;;;;24.13;37.35;101231.36;1749308;80;21106;-72
2021/09/09 10:51:04;;;;;;;12.23;7.62;;;;;;;24.12;37.36;101231.03;1746903;80;21078;-70
2021/09/09 10:53:45;;;;;;;9.68;6.58;;;;;;;24.10;38.17;101235.25;1749076;80;21038;-71
2021/09/09 10:56:23;;;;;;;11.68;7.28;;;;;;;24.12;38.06;101231.03;1722705;80;21514;-70
2021/09/09 10:59:20;;;;;;;11.75;7.70;;;;;;;24.12;38.29;101218.93;1751503;80;21093;-72
2021/09/09 11:01:47;;;;;;;12.40;7.22;;;;;;;24.12;38.85;101218.93;1718951;80;21940;-71
2021/09/09 11:04:32;;;;;;;19.35;7.30;;;;;;;24.15;38.81;101218.55;1690094;81;21055;-69
2021/09/09 11:07:01;;;;;;;9.60;6.80;;;;;;;24.20;37.56;101213.95;1676244;84;21653;-73
2021/09/09 11:09:30;;;;;;;10.68;7.03;;;;;;;24.24;37.68;101209.84;1674609;84;21071;-76
2021/09/09 11:12:04;;;;;;;11.10;6.72;;;;;;;24.27;37.57;101204.08;1669610;84;21126;-76
2021/09/09 11:14:32;;;;;;;11.60;7.33;;;;;;;24.32;38.42;101202.16;1704658;82;21174;-71
2021/09/09 11:17:00;;;;;;;10.68;7.17;;;;;;;24.38;38.43;101190.64;1701901;82;21085;-70
2021/09/09 11:19:26;;;;;;;12.45;6.72;;;;;;;24.41;38.40;101187.53;1704992;82;22457;-74
2021/09/09 11:21:53;;;;;;;11.20;6.72;;;;;;;24.41;38.15;101193.77;1703000;82;21052;-71